Главная страница
METAR-TAF:

METAR-TAF

Аэропорты :

Såtenäs, Швеция

широта: 58-26N, долгота: 012-42E, высота над уровнем моря: 54 м

Текущие метеонаблюдения

Эта сводка был подготовлена 38 минут назад, в 13:50 UTC
Ветер 15 Узел от южный
Температура 10°C
Влажность 71%
Давление 1027 hPa
Видимость 10 км и более
Нет облачности ниже 1500 м, и нет кучево-дождевой облачности

METAR: ESIB 221350Z 19015KT CAVOK 10/05 Q1027

Время: 15:28 (14:28 UTC)

Прогноз

Эта сводка был подготовлена 3 часа и 3 минут назад, в 11:25 UTC
Прогноз действительный с 22-го 12 UTC до 22-го 21 UTC
Ветер 12 Узел от южный-юго-западный
Видимость 10 км и более
Нет облачности ниже 1500 м, и нет кучево-дождевой облачности
изменения
С 22-го 17 UTC до 22-го 19 UTC
Рассеянная облачность на высоте 800 фута
временами
С 22-го 18 UTC до 22-го 21 UTC
Видимость: 3000 м
Рассеянная облачность на высоте 300 фута
дымка, Морось

TAF: ESIB 221125Z 2212/2221 20012KT CAVOK BECMG 2217/2219 BKN008 TEMPO 2218/2221 3000 BR DZ BKN003 RMK MIL

Метеонаблюдения и прогнозы для более 4000 аэропортов (сводки METAR и TAF).

Имеющиеся станции представлены на карте желтыми и красными точками.

Чтобы увидеть название станции, наведите на нее мышь.

Затем щелкните, чтобы увидеть метеонаблюдения и метеопрогнозы.

Управление картой: чтобы увеличить масштаб, щелкните зеленые кнопки с черным крестиком; чтобы уменьшить масштаб, щелкните зеленую кнопку с тире; для просмотра соседних карт щелкайте зеленые стрелки.


METAR-TAF: